• Join FlightAware (Why Join?)
  • Login
  • US Flag 
11:06PM EDT


 

Airport Tracker/Info


-or-


 

Live Flight TrackerFlight Track Log ✈ EZY1931 ✈ 27-Apr-2013 ✈ EGCC / MAN - LBSF / SOF

Flight Track Log - Related Links

Times and Time Zones

All times are in EDT time to prevent confusion due to time zone crossing. See the EZY1931 flight status page for this flight to view local times or setup timezone preferences in your user account.

Time Position Orientation Groundspeed Altitude Reporting Facility
EDT Latitude Longitude Course Direction KTS MPH feet Rate Location/Type
01:40AM 52.9111 -0.4860 112° Southeast  Level Estimated
01:41AM 52.8696 -0.3252 113° Southeast  Level Estimated
01:42AM 52.8278 -0.1647 113° Southeast  Level Estimated
01:43AM 52.7858 -0.0045 113° Southeast  Level Estimated
01:44AM 52.7436 0.1553 114° Southeast  Level Estimated
01:45AM 52.7012 0.3149 114° Southeast  Level Estimated
01:46AM 52.6586 0.4742 114° Southeast  Level Estimated
01:47AM 52.6157 0.6331 114° Southeast  Level Estimated
01:48AM 52.5726 0.7917 114° Southeast  Level Estimated
01:49AM 52.5294 0.9500 114° Southeast  Level Estimated
01:50AM 52.4850 1.1114 114° Southeast  Level Estimated
01:51AM 52.4403 1.2725 114° Southeast  Level Estimated
01:52AM 52.3955 1.4332 115° Southeast  Level Estimated
01:53AM 52.3504 1.5936 115° Southeast  Level Estimated
01:54AM 52.3051 1.7537 115° Southeast  Level Estimated
01:55AM 52.2596 1.9135 115° Southeast  Level Estimated
01:56AM 52.2139 2.0729 115° Southeast  Level Estimated
01:57AM 52.1679 2.2320 115° Southeast  Level Estimated
01:58AM 52.1218 2.3908 115° Southeast  Level Estimated
01:59AM 52.0754 2.5492 115° Southeast  Level Estimated
02:00AM 52.0288 2.7073 116° Southeast  Level Estimated
02:01AM 51.9821 2.8651 116° Southeast  Level Estimated
02:02AM 51.9351 3.0226 116° Southeast  Level Estimated
02:03AM 51.8878 3.1797 116° Southeast  Level Estimated
02:04AM 51.8404 3.3365 116° Southeast  Level Estimated
02:05AM 51.7928 3.4929 116° Southeast  Level Estimated
02:06AM 51.7450 3.6491 116° Southeast  Level Estimated
02:07AM 51.6969 3.8049 116° Southeast  Level Estimated
02:08AM 51.6487 3.9603 117° Southeast  Level Estimated
02:09AM 51.6003 4.1155 117° Southeast  Level Estimated
02:10AM 51.5516 4.2703 117° Southeast  Level Estimated
02:11AM 51.5028 4.4248 117° Southeast  Level Estimated
02:12AM 51.4537 4.5789 117° Southeast  Level Estimated
02:13AM 51.4044 4.7327 117° Southeast  Level Estimated
02:14AM 51.3550 4.8862 117° Southeast  Level Estimated
02:15AM 51.3053 5.0393 117° Southeast  Level Estimated
02:16AM 51.2555 5.1922 117° Southeast  Level Estimated
02:17AM 51.2054 5.3446 118° Southeast  Level Estimated
02:18AM 51.1551 5.4968 118° Southeast  Level Estimated
02:19AM 51.1047 5.6486 118° Southeast  Level Estimated
02:20AM 51.0540 5.8001 118° Southeast  Level Estimated
02:21AM 51.0032 5.9513 118° Southeast  Level Estimated
02:22AM 50.9522 6.1021 118° Southeast  Level Estimated
02:23AM 50.9009 6.2526 118° Southeast  Level Estimated
02:24AM 50.8495 6.4028 118° Southeast  Level Estimated
02:25AM 50.7979 6.5526 119° Southeast  Level Estimated
02:26AM 50.7461 6.7021 119° Southeast  Level Estimated
02:27AM 50.6941 6.8513 119° Southeast  Level Estimated
02:28AM 50.6419 7.0001 119° Southeast  Level Estimated
02:29AM 50.5895 7.1486 119° Southeast  Level Estimated
02:30AM 50.5369 7.2968 119° Southeast  Level Estimated
02:31AM 50.4842 7.4447 119° Southeast  Level Estimated
02:32AM 50.4313 7.5922 119° Southeast  Level Estimated
02:33AM 50.3781 7.7394 119° Southeast  Level Estimated
02:34AM 50.3248 7.8862 120° Southeast  Level Estimated
02:35AM 50.2713 8.0328 120° Southeast  Level Estimated
02:36AM 50.2176 8.1790 120° Southeast  Level Estimated
02:37AM 50.1638 8.3248 120° Southeast  Level Estimated
02:38AM 50.1097 8.4704 120° Southeast  Level Estimated
02:39AM 50.0555 8.6156 120° Southeast  Level Estimated
02:40AM 50.0011 8.7605 120° Southeast  Level Estimated
02:41AM 49.9465 8.9050 120° Southeast  Level Estimated
02:42AM 49.8917 9.0492 120° Southeast  Level Estimated
02:43AM 49.8368 9.1931 121° Southeast  Level Estimated
02:44AM 49.7817 9.3367 121° Southeast  Level Estimated
02:45AM 49.7263 9.4800 121° Southeast  Level Estimated
02:46AM 49.6709 9.6229 121° Southeast  Level Estimated
02:47AM 49.6152 9.7655 121° Southeast  Level Estimated
02:48AM 49.5594 9.9077 121° Southeast  Level Estimated
02:49AM 49.5034 10.0497 121° Southeast  Level Estimated
02:50AM 49.4472 10.1913 121° Southeast  Level Estimated
02:51AM 49.3909 10.3326 121° Southeast  Level Estimated
02:52AM 49.3344 10.4736 122° Southeast  Level Estimated
02:53AM 49.2777 10.6142 122° Southeast  Level Estimated
02:54AM 49.2208 10.7545 122° Southeast  Level Estimated
02:55AM 49.1638 10.8945 122° Southeast  Level Estimated
02:56AM 49.1066 11.0342 122° Southeast  Level Estimated
02:57AM 49.0492 11.1735 122° Southeast  Level Estimated
02:58AM 48.9917 11.3126 122° Southeast  Level Estimated
02:59AM 48.9340 11.4513 122° Southeast  Level Estimated
03:00AM 48.8761 11.5897 122° Southeast  Level Estimated
03:01AM 48.8181 11.7277 123° Southeast  Level Estimated
03:02AM 48.7599 11.8655 123° Southeast  Level Estimated
03:03AM 48.7015 12.0029 123° Southeast  Level Estimated
03:04AM 48.6430 12.1400 123° Southeast  Level Estimated
03:05AM 48.5843 12.2768 123° Southeast  Level Estimated
03:06AM 48.5255 12.4133 123° Southeast  Level Estimated
03:07AM 48.4664 12.5495 123° Southeast  Level Estimated
03:08AM 48.4073 12.6853 123° Southeast  Level Estimated
03:09AM 48.3479 12.8208 123° Southeast  Level Estimated
03:10AM 48.2884 12.9560 123° Southeast  Level Estimated
03:11AM 48.2288 13.0910 124° Southeast  Level Estimated
03:12AM 48.1690 13.2255 124° Southeast  Level Estimated
03:13AM 48.1091 13.3598 124° Southeast  Level Estimated
03:14AM 48.0489 13.4937 124° Southeast  Level Estimated
03:15AM 47.9887 13.6274 124° Southeast  Level Estimated
03:16AM 47.9282 13.7607 124° Southeast  Level Estimated
03:17AM 47.8677 13.8937 124° Southeast  Level Estimated
03:18AM 47.8069 14.0265 124° Southeast  Level Estimated
03:19AM 47.7461 14.1588 124° Southeast  Level Estimated
03:20AM 47.6850 14.2909 124° Southeast  Level Estimated
03:21AM 47.6238 14.4227 125° Southeast  Level Estimated
03:22AM 47.5625 14.5542 125° Southeast  Level Estimated
03:23AM 47.5010 14.6854 125° Southeast  Level Estimated
03:24AM 47.4394 14.8162 125° Southeast  Level Estimated
03:25AM 47.3776 14.9467 125° Southeast  Level Estimated
03:26AM 47.3156 15.0770 125° Southeast  Level Estimated
03:27AM 47.2536 15.2069 125° Southeast  Level Estimated
03:28AM 47.1913 15.3366 125° Southeast  Level Estimated
03:29AM 47.1290 15.4659 125° Southeast  Level Estimated
03:30AM 47.0664 15.5949 125° Southeast  Level Estimated
03:31AM 47.0038 15.7236 125° Southeast  Level Estimated
03:32AM 46.9410 15.8520 126° Southeast  Level Estimated
03:33AM 46.8780 15.9802 126° Southeast  Level Estimated
03:34AM 46.8149 16.1080 126° Southeast  Level Estimated
03:35AM 46.7517 16.2355 126° Southeast  Level Estimated
03:36AM 46.6883 16.3627 126° Southeast  Level Estimated
03:37AM 46.6248 16.4897 126° Southeast  Level Estimated
03:38AM 46.5611 16.6163 126° Southeast  Level Estimated
03:39AM 46.4973 16.7426 126° Southeast  Level Estimated
03:40AM 46.4334 16.8686 126° Southeast  Level Estimated
03:41AM 46.3693 16.9944 126° Southeast  Level Estimated
03:42AM 46.3051 17.1198 127° Southeast  Level Estimated
03:43AM 46.2408 17.2449 127° Southeast  Level Estimated
03:44AM 46.1763 17.3698 127° Southeast  Level Estimated
03:45AM 46.1117 17.4943 127° Southeast  Level Estimated
03:46AM 46.0469 17.6186 127° Southeast  Level Estimated
03:47AM 45.9820 17.7426 127° Southeast  Level Estimated
03:48AM 45.9170 17.8662 127° Southeast  Level Estimated
03:49AM 45.8518 17.9896 127° Southeast  Level Estimated
03:50AM 45.7865 18.1127 127° Southeast  Level Estimated
03:51AM 45.7211 18.2356 127° Southeast  Level Estimated
03:52AM 45.6556 18.3581 127° Southeast  Level Estimated
03:53AM 45.5899 18.4803 127° Southeast  Level Estimated
03:54AM 45.5241 18.6023 128° Southeast  Level Estimated
03:55AM 45.4581 18.7240 128° Southeast  Level Estimated
03:56AM 45.3921 18.8454 128° Southeast  Level Estimated
03:57AM 45.3259 18.9664 128° Southeast  Level Estimated
03:58AM 45.2595 19.0873 128° Southeast  Level Estimated
03:59AM 45.1931 19.2078 128° Southeast  Level Estimated
04:00AM 45.1265 19.3281 128° Southeast  Level Estimated
04:01AM 45.0598 19.4480 128° Southeast  Level Estimated
04:02AM 44.9930 19.5677 128° Southeast  Level Estimated
04:03AM 44.9260 19.6871 128° Southeast  Level Estimated
04:04AM 44.8589 19.8063 128° Southeast  Level Estimated
04:05AM 44.7917 19.9251 129° Southeast  Level Estimated
04:06AM 44.7244 20.0437 129° Southeast  Level Estimated
04:07AM 44.6570 20.1620 129° Southeast  Level Estimated
04:08AM 44.5894 20.2801 129° Southeast  Level Estimated
04:09AM 44.5217 20.3978 129° Southeast  Level Estimated
04:10AM 44.4539 20.5153 129° Southeast  Level Estimated
04:11AM 44.3860 20.6325 129° Southeast  Level Estimated
04:12AM 44.3179 20.7495 129° Southeast  Level Estimated
04:13AM 44.2497 20.8661 129° Southeast  Level Estimated
04:14AM 44.1814 20.9825 129° Southeast  Level Estimated
04:15AM 44.1130 21.0986 129° Southeast  Level Estimated
04:16AM 44.0445 21.2145 129° Southeast  Level Estimated
04:17AM 43.9759 21.3301 130° Southeast  Level Estimated
04:18AM 43.9071 21.4454 130° Southeast  Level Estimated
04:19AM 43.8382 21.5605 130° Southeast  Level Estimated
04:20AM 43.7704 21.6735 130° Southeast  Level Estimated
04:21AM 43.7024 21.7862 130° Southeast  Level Estimated
04:22AM 43.6342 21.8986 130° Southeast  Level Estimated
04:23AM 43.5660 22.0108 130° Southeast  Level Estimated
04:24AM 43.4977 22.1228 130° Southeast  Level Estimated
04:25AM 43.4292 22.2345 130° Southeast  Level Estimated
04:26AM 43.3607 22.3459 130° Southeast  Level Estimated
04:27AM 43.2920 22.4571 130° Southeast  Level Estimated
04:28AM 43.2233 22.5681 130° Southeast  Level Estimated
04:29AM 43.1544 22.6787 130° Southeast  Level Estimated
04:30AM 43.0854 22.7892 131° Southeast  Level Estimated
04:31AM 43.0163 22.8994 131° Southeast  Level Estimated
04:32AM 42.9471 23.0093 131° Southeast  Level Estimated
04:33AM 42.8778 23.1190 131° Southeast  Level Estimated
04:34AM 42.8084 23.2285 131° Southeast  Level Estimated
04:35AM 42.7389 23.3377 131° Southeast  Level Estimated
04:36AM 42.6952 23.4062 131° Southeast  Level Estimated
04:37AM 42.6952 23.4062 331° Northwest  Level Estimated
04:38AM 42.6952 23.4062 331° Northwest  Level Estimated
04:39AM 42.6952 23.4062 331° Northwest  Level Estimated
04:40AM 42.6952 23.4062 331° Northwest  Level Estimated
04:41AM 42.6952 23.4062 331° Northwest  Level Estimated
04:42AM 42.6952 23.4062 331° Northwest  Level Estimated
04:43AM 42.6952 23.4062 331° Northwest  Level Estimated
04:44AM 42.6952 23.4062 331° Northwest  Level Estimated
04:45AM 42.6952 23.4062 331° Northwest  Level Estimated
04:46AM 42.6952 23.4062 331° Northwest  Level Estimated
04:47AM 42.6952 23.4062 331° Northwest  Level Estimated
04:48AM 42.6952 23.4062 331° Northwest  Level Estimated
04:49AM 42.6952 23.4062 331° Northwest  Level Estimated
04:50AM 42.6952 23.4062 331° Northwest  Level Estimated
04:51AM 42.6952 23.4062 331° Northwest  Level Estimated
04:52AM 42.6952 23.4062 331° Northwest  Level Estimated